Flight Track Log - Related Links

Times and Time Zones

All times are in EDT time to prevent confusion due to time zone crossing. See the SWA1462 flight status page for this flight to view local times or setup timezone preferences in your user account.

Time Position Orientation Groundspeed Altitude Reporting Facility
EDT Latitude Longitude Course Direction KTS MPH feet Rate Location/Type
Tue 09:49:45 AM 41.8167 -87.7333 277° West 197 227 2,000  Level Chicago TRACON
Tue 09:50:51 AM 41.8167 -87.8167 270° West 202 232 4,000 923 Climbing Chicago TRACON
Tue 09:52:21 AM 41.7961 -87.9089 253° West 203 234 4,400 1,539 Climbing Chicago Center
Tue 09:53:23 AM 41.7833 -88.0183 261° West 251 289 7,900 3,415 Climbing Chicago Center
Tue 09:54:24 AM 41.7869 -88.1192 273° West 272 313 11,400 2,195 Climbing Chicago Center
Tue 09:55:00 AM 41.8685 -88.6026 277° West  Level FlightAware Approximate
Tue 09:55:26 AM 41.7917 -88.2197 274° West 273 314 12,400  Level Chicago Center
Tue 09:56:28 AM 41.8419 -88.3056 308° West 295 339 16,000 3,073 Climbing Chicago Center
Tue 09:57:29 AM 41.8969 -88.3861 313° West 294 338 18,700 2,537 Climbing Chicago Center
Tue 09:58:31 AM 41.9525 -88.4697 312° West 300 345 21,200 1,645 Climbing Chicago Center
Tue 09:59:33 AM 42.0247 -88.5906 309° West 355 409 22,100 1,238 Climbing Chicago Center
Tue 10:00:37 AM 42.0881 -88.7053 307° West 383 441 23,800 1,524 Climbing Chicago Center
Tue 10:01:39 AM 42.0858 -88.8494 269° West 394 453 25,300 1,610 Climbing Chicago Center
Tue 10:02:40 AM 42.0836 -89.0256 269° West 402 463 27,100 1,610 Climbing Chicago Center
Tue 10:03:42 AM 42.0681 -89.1808 262° West 418 481 28,600 1,452 Climbing Chicago Center
Tue 10:04:44 AM 42.0411 -89.3394 257° West 422 486 30,100 1,403 Climbing Chicago Center
Tue 10:05:46 AM 42.0383 -89.4978 269° West 430 495 31,500 1,756 Climbing Chicago Center
Tue 10:06:47 AM 42.0450 -89.6539 273° West 423 487 33,700 1,220 Climbing Chicago Center
Tue 10:07:49 AM 42.0544 -89.8028 275° West 406 467 34,000 145 Climbing Chicago Center
Tue 10:08:51 AM 42.0658 -89.9681 275° West 396 456 34,000  Level Chicago Center
Tue 10:09:53 AM 42.0736 -90.1175 274° West 404 465 34,000  Level Chicago Center
Tue 10:10:54 AM 42.0822 -90.2622 275° West 395 455 34,000  Level Chicago Center
Tue 10:11:56 AM 42.0903 -90.4061 274° West 389 448 34,000 629 Level Chicago Center
Tue 10:12:58 AM 42.0972 -90.5519 274° West 392 451 35,300 1,161 Climbing Chicago Center
Tue 10:14:00 AM 42.1047 -90.6956 274° West 389 448 36,400 1,073 Climbing Chicago Center
Tue 10:15:01 AM 42.1144 -90.8697 274° West 392 451 37,500 780 Climbing Chicago Center
Tue 10:16:03 AM 42.1214 -91.0172 274° West 397 457 38,000 242 Climbing Chicago Center
Tue 10:17:05 AM 42.1278 -91.1647 273° West 396 456 38,000  Level Chicago Center
Tue 10:18:07 AM 42.1350 -91.3092 274° West 392 451 38,000  Level Chicago Center
Tue 10:19:09 AM 42.1414 -91.4547 273° West 390 449 38,000  Level Chicago Center
Tue 10:20:10 AM 42.1475 -91.5997 273° West 389 448 38,000  Level Chicago Center
Tue 10:21:12 AM 42.1558 -91.7706 274° West 382 440 38,000  Level Chicago Center
Tue 10:22:14 AM 42.1611 -91.9136 273° West 383 441 38,000  Level Chicago Center
Tue 10:23:15 AM 42.1664 -92.0539 273° West 379 436 38,000  Level Chicago Center
Tue 10:23:52 AM 42.1694 -92.1406 273° West 379 436 38,000  Level Minneapolis Center
Tue 10:24:53 AM 42.1764 -92.2831 274° West 381 438 38,000  Level Minneapolis Center
Tue 10:25:55 AM 42.1806 -92.4269 272° West 384 442 38,000  Level Minneapolis Center
Tue 10:26:56 AM 42.1867 -92.5692 273° West 384 442 38,000  Level Minneapolis Center
Tue 10:28:58 AM 42.2008 -92.8864 274° West 392 451 38,000  Level Minneapolis Center
Tue 10:31:01 AM 42.2978 -93.1589 296° West 410 472 38,000  Level Minneapolis Center
Tue 10:32:03 AM 42.3467 -93.2964 296° West 408 470 38,000  Level Minneapolis Center
Tue 10:33:04 AM 42.3797 -93.4414 287° West 407 468 38,000  Level Minneapolis Center
Tue 10:34:05 AM 42.3814 -93.5897 271° West 397 457 38,000  Level Minneapolis Center
Tue 10:35:07 AM 42.3842 -93.7403 271° West 402 463 38,000  Level Minneapolis Center
Tue 10:36:08 AM 42.3864 -93.8892 271° West 400 460 38,000  Level Minneapolis Center
Tue 10:37:10 AM 42.3889 -94.0686 271° West 398 458 38,000  Level Minneapolis Center
Tue 10:38:11 AM 42.3900 -94.2183 271° West 401 461 38,000  Level Minneapolis Center
Tue 10:39:12 AM 42.3919 -94.3608 271° West 399 459 38,000  Level Minneapolis Center
Tue 10:40:14 AM 42.3944 -94.5111 271° West 400 460 38,000  Level Minneapolis Center
Tue 10:41:15 AM 42.3933 -94.6575 269° West 395 455 38,000  Level Minneapolis Center
Tue 10:42:17 AM 42.3958 -94.8342 271° West 393 452 38,000  Level Minneapolis Center
Tue 10:43:18 AM 42.3953 -94.9839 270° West 396 456 38,000  Level Minneapolis Center
Tue 10:44:20 AM 42.3961 -95.1325 270° West 397 457 38,000  Level Minneapolis Center
Tue 10:45:21 AM 42.3961 -95.2828 270° West 399 459 38,000  Level Minneapolis Center
Tue 10:46:22 AM 42.3964 -95.4286 270° West 392 451 38,000  Level Minneapolis Center
Tue 10:47:24 AM 42.3958 -95.5756 270° West 391 450 38,000  Level Minneapolis Center
Tue 10:48:25 AM 42.3964 -95.7233 270° West 393 452 38,000  Level Minneapolis Center
Tue 10:49:27 AM 42.3953 -95.8700 269° West 392 451 38,000  Level Minneapolis Center
Tue 10:50:28 AM 42.3944 -96.0478 270° West 395 455 38,000  Level Minneapolis Center
Tue 10:51:30 AM 42.3942 -96.1964 270° West 396 456 38,000  Level Minneapolis Center
Tue 10:52:31 AM 42.3925 -96.3444 269° West 397 457 38,000  Level Minneapolis Center
Tue 10:53:32 AM 42.3914 -96.4958 269° West 400 460 38,000  Level Minneapolis Center
Tue 10:54:34 AM 42.3897 -96.6464 269° West 401 461 38,000  Level Minneapolis Center
Tue 10:55:36 AM 42.3878 -96.7967 269° West 402 463 38,000  Level Minneapolis Center
Tue 10:56:37 AM 42.3861 -96.9481 269° West 403 464 38,000  Level Minneapolis Center
Tue 10:57:39 AM 42.3833 -97.0967 269° West 400 460 38,000  Level Minneapolis Center
Tue 10:58:40 AM 42.3819 -97.2761 269° West 399 459 38,000  Level Minneapolis Center
Tue 10:59:42 AM 42.3794 -97.4247 269° West 398 458 38,000  Level Minneapolis Center
Tue 11:00:43 AM 42.3761 -97.5736 268° West 398 458 38,000  Level Minneapolis Center
Tue 11:02:23 AM 42.3703 -97.8264 268° West 398 458 38,000  Level Denver Center
Tue 11:02:46 AM 42.3697 -97.8864 269° West 400 460 38,000  Level Minneapolis Center
Tue 11:04:26 AM 42.3642 -98.1272 268° West 401 461 38,000  Level Denver Center
Tue 11:05:28 AM 42.3608 -98.2783 268° West 402 463 38,000  Level Denver Center
Tue 11:06:30 AM 42.3561 -98.4269 268° West 398 458 38,000  Level Denver Center
Tue 11:07:32 AM 42.3533 -98.5772 269° West 400 460 38,000  Level Denver Center
Tue 11:08:33 AM 42.3481 -98.7564 268° West 399 459 38,000  Level Denver Center
Tue 11:08:55 AM 42.3472 -98.7853 268° West 400 460 38,000  Level Minneapolis Center
Tue 11:10:37 AM 42.3386 -99.0553 268° West 398 458 38,000  Level Denver Center
Tue 11:10:58 AM 42.3381 -99.1136 269° West 398 458 38,000  Level Minneapolis Center
Tue 11:11:59 AM 42.3328 -99.2617 267° West 396 456 38,000  Level Minneapolis Center
Tue 11:13:01 AM 42.3278 -99.4092 267° West 395 455 38,000  Level Minneapolis Center
Tue 11:13:43 AM 42.3242 -99.4983 267° West 396 456 38,000  Level Denver Center
Tue 11:14:45 AM 42.3192 -99.6447 267° West 392 451 38,000  Level Denver Center
Tue 11:15:46 AM 42.3119 -99.8103 267° West 390 449 38,000  Level Denver Center
Tue 11:16:48 AM 42.3061 -99.9739 267° West 391 450 38,000  Level Denver Center
Tue 11:17:50 AM 42.3006 -100.1114 267° West 386 444 38,000  Level Denver Center
Tue 11:18:52 AM 42.2950 -100.2517 267° West 389 448 38,000  Level Denver Center
Tue 11:19:54 AM 42.2886 -100.4136 267° West 389 448 38,000  Level Denver Center
Tue 11:20:56 AM 42.2822 -100.5536 267° West 390 449 38,000  Level Denver Center
Tue 11:21:58 AM 42.2747 -100.7169 267° West 392 451 38,000  Level Denver Center
Tue 11:23:00 AM 42.2681 -100.8581 266° West 393 452 38,000  Level Denver Center
Tue 11:24:02 AM 42.2606 -101.0253 267° West 399 459 38,000  Level Denver Center
Tue 11:25:03 AM 42.2525 -101.1694 266° West 402 463 38,000  Level Denver Center
Tue 11:26:05 AM 42.2444 -101.3358 266° West 401 461 38,000  Level Denver Center
Tue 11:27:07 AM 42.2378 -101.4811 267° West 404 465 38,000  Level Denver Center
Tue 11:28:09 AM 42.2278 -101.6494 265° West 404 465 38,000  Level Denver Center
Tue 11:29:11 AM 42.2203 -101.7928 266° West 403 464 38,000  Level Denver Center
Tue 11:30:13 AM 42.2117 -101.9592 266° West 402 463 38,000  Level Denver Center
Tue 11:31:15 AM 42.2022 -102.1050 265° West 405 466 38,000  Level Denver Center
Tue 11:32:17 AM 42.1919 -102.2711 265° West 404 465 38,000  Level Denver Center
Tue 11:33:19 AM 42.1831 -102.4172 265° West 406 467 38,000  Level Denver Center
Tue 11:34:21 AM 42.1758 -102.5625 266° West 406 467 38,000  Level Denver Center
Tue 11:35:23 AM 42.1639 -102.7333 265° West 409 471 38,000  Level Denver Center
Tue 11:36:25 AM 42.1550 -102.8792 265° West 408 470 38,000  Level Denver Center
Tue 11:37:27 AM 42.1433 -103.0531 265° West 414 476 38,000  Level Denver Center
Tue 11:38:29 AM 42.1342 -103.2047 265° West 421 484 38,000  Level Denver Center
Tue 11:39:31 AM 42.1211 -103.3803 264° West 422 486 38,000  Level Denver Center
Tue 11:40:33 AM 42.1108 -103.5339 265° West 427 491 38,000  Level Denver Center
Tue 11:41:35 AM 42.0969 -103.7117 264° West 428 493 38,000  Level Denver Center
Tue 11:42:36 AM 42.0869 -103.8633 265° West 425 489 38,000  Level Denver Center
Tue 11:43:38 AM 42.0753 -104.0167 264° West 427 491 38,000  Level Denver Center
Tue 11:44:40 AM 42.0617 -104.1961 264° West 430 495 38,000  Level Denver Center
Tue 11:45:42 AM 42.0500 -104.3508 264° West 432 497 38,000  Level Denver Center
Tue 11:46:44 AM 42.0369 -104.5314 264° West 432 497 38,000  Level Denver Center
Tue 11:47:46 AM 42.0231 -104.6861 263° West 433 498 38,000  Level Denver Center
Tue 11:48:48 AM 42.0089 -104.8675 264° West 435 501 38,000  Level Denver Center
Tue 11:49:50 AM 41.9961 -105.0225 264° West 435 501 38,000  Level Denver Center
Tue 11:50:52 AM 41.9831 -105.1792 264° West 438 504 38,000  Level Denver Center
Tue 11:51:54 AM 41.9661 -105.3611 263° West 439 505 38,000  Level Denver Center
Tue 11:52:55 AM 41.9525 -105.5178 263° West 441 507 38,000  Level Denver Center
Tue 11:53:57 AM 41.9375 -105.7011 264° West 441 507 38,000  Level Denver Center
Tue 11:54:59 AM 41.9231 -105.8586 263° West 443 510 38,000  Level Denver Center
Tue 11:56:01 AM 41.9053 -106.0417 263° West 443 510 38,000  Level Denver Center
Tue 11:57:03 AM 41.8911 -106.2017 263° West 449 517 38,000  Level Denver Center
Tue 11:58:05 AM 41.8728 -106.3872 263° West 449 517 38,000  Level Denver Center
Tue 11:59:07 AM 41.8581 -106.5567 263° West 453 521 38,000  Level Denver Center
Tue 12:00:09 PM 41.8422 -106.7178 263° West 455 524 38,000  Level Denver Center
Tue 12:01:11 PM 41.8217 -106.9039 262° West 454 522 38,000  Level Denver Center
Tue 12:02:13 PM 41.8058 -107.0636 262° West 452 520 38,000  Level Denver Center
Tue 12:03:15 PM 41.7872 -107.2472 262° West 447 514 38,000  Level Denver Center
Tue 12:04:16 PM 41.7703 -107.4050 262° West 446 513 38,000  Level Denver Center
Tue 12:05:18 PM 41.7542 -107.5633 262° West 449 517 38,000  Level Denver Center
Tue 12:06:20 PM 41.7344 -107.7453 262° West 445 512 38,000  Level Denver Center
Tue 12:07:22 PM 41.7183 -107.9017 262° West 445 512 38,000  Level Denver Center
Tue 12:08:24 PM 41.6972 -108.0828 261° West 442 509 38,000  Level Denver Center
Tue 12:09:26 PM 41.6806 -108.2375 262° West 441 507 38,000  Level Denver Center
Tue 12:10:28 PM 41.6608 -108.4197 262° West 444 511 38,000  Level Denver Center
Tue 12:11:29 PM 41.6425 -108.5747 261° West 443 510 38,000  Level Denver Center
Tue 12:12:31 PM 41.6203 -108.7556 261° West 444 511 38,000  Level Denver Center
Tue 12:13:33 PM 41.6025 -108.9119 261° West 447 514 38,000  Level Denver Center
Tue 12:14:48 PM 41.5983 -109.1211 269° West 452 520 38,000  Level Salt Lake Center
Tue 12:15:49 PM 41.6125 -109.3033 276° West 450 518 38,000  Level Salt Lake Center
Tue 12:16:51 PM 41.6250 -109.4622 276° West 451 519 38,000  Level Salt Lake Center
Tue 12:17:53 PM 41.6389 -109.6469 276° West 451 519 38,000  Level Salt Lake Center
Tue 12:18:55 PM 41.6511 -109.8044 276° West 448 516 38,000  Level Salt Lake Center
Tue 12:19:56 PM 41.6631 -109.9631 276° West 448 516 38,000 -49 Level Salt Lake Center
Tue 12:20:58 PM 41.6761 -110.1467 275° West 447 514 37,900 -919 Descending Salt Lake Center
Tue 12:22:00 PM 41.6878 -110.3058 276° West 450 518 36,100 -2,585 Descending Salt Lake Center
Tue 12:23:01 PM 41.6997 -110.4972 275° West 463 533 32,600 -2,878 Descending Salt Lake Center
Tue 12:24:03 PM 41.7108 -110.6592 275° West 459 528 30,200 -1,258 Descending Salt Lake Center
Tue 12:25:05 PM 41.7231 -110.8403 275° West 442 509 30,000 -97 Descending Salt Lake Center
Tue 12:26:07 PM 41.7322 -111.0042 274° West 434 499 30,000  Level Salt Lake Center
Tue 12:27:08 PM 41.7419 -111.1656 275° West 437 503 30,000  Level Salt Lake Center
Tue 12:28:10 PM 41.7519 -111.3272 275° West 439 505 30,000  Level Salt Lake Center
Tue 12:29:12 PM 41.7631 -111.4886 275° West 439 505 30,000 -1,016 Level Salt Lake Center
Tue 12:30:14 PM 41.7708 -111.6497 274° West 437 503 27,900 -2,293 Descending Salt Lake Center
Tue 12:31:15 PM 41.7819 -111.8342 275° West 418 481 25,300 -2,293 Descending Salt Lake Center
Tue 12:32:17 PM 41.7639 -111.9775 260° West 409 471 23,200 -2,122 Descending Salt Lake Center
Tue 12:32:37 PM 41.7364 -112.0006 212° Southwest 402 463 22,400 -2,129 Descending Salt Lake Center
Tue 12:33:19 PM 41.6647 -112.0283 196° South 397 457 21,000 -1,981 Descending Salt Lake Center
Tue 12:34:20 PM 41.5561 -112.0467 187° South 394 453 19,000 -976 Descending Salt Lake Center
Tue 12:35:22 PM 41.4425 -112.0614 186° South 382 440 19,000 -829 Level Salt Lake Center
Tue 12:36:23 PM 41.3400 -112.0878 191° South 371 427 17,300 -1,884 Descending Salt Lake Center
Tue 12:37:23 PM 41.2411 -112.1100 190° South 364 419 15,200 -1,140 Descending Salt Lake Center
Tue 12:38:24 PM 41.1422 -112.1322 190° South 363 418 15,000 -619 Descending Salt Lake Center
Tue 12:39:29 PM 41.0372 -112.1392 183° South 355 409 13,900 -1,571 Descending Salt Lake Center
Tue 12:40:30 PM 40.9397 -112.1172 170° South 359 413 11,700 -1,415 Descending Salt Lake Center
Tue 12:41:32 PM 40.8475 -112.1031 173° South 335 386 11,000 -339 Descending Salt Lake Center
Tue 12:42:34 PM 40.7711 -112.0931 174° South 275 316 11,000 -541 Level Salt Lake Center
Tue 12:43:34 PM 40.6944 -112.0881 177° South 249 287 9,900 -1,024 Descending Salt Lake Center
Tue 12:44:37 PM 40.6239 -112.0636 165° South 248 285 8,900 -960 Descending Salt Lake Center
Tue 12:45:39 PM 40.6236 -111.9942 90° East 211 243 7,900 -1,024 Descending Salt Lake Center
Tue 12:46:40 PM 40.6678 -111.9822 12° North 165 190 6,800 -1,024 Descending Salt Lake Center
Tue 12:47:42 PM 40.7106 -111.9878 354° North 156 180 5,800 -1,026 Descending Salt Lake Center
Tue 12:48:37 PM 40.7517 -111.9953 352° North 148 170 4,800 -780 Descending Salt Lake Center
Tue 12:49:45 PM 40.7900 -111.9956 360° North 142 163 4,200 -529 Descending Salt Lake Center
Tue 12:51:00 PM 40.7884 -111.9778 90° East  Level Estimated

Login

Don't have an account? Register now (free) for customized features, flight alerts, and more!